createdAt,value
2019-03-11T00:00:08.954Z,80.82
2019-03-11T00:05:11.064Z,80.01
2019-03-11T00:10:13.149Z,80.23
2019-03-11T00:15:15.247Z,80.42
2019-03-11T00:20:17.316Z,76.77
2019-03-11T00:25:19.355Z,75.00
2019-03-11T00:30:21.451Z,73.68
2019-03-11T00:35:23.500Z,73.59
2019-03-11T00:40:25.829Z,72.65
2019-03-11T00:45:27.900Z,73.24
2019-03-11T00:50:29.985Z,72.26
2019-03-11T00:55:32.087Z,72.30
2019-03-11T01:00:35.242Z,72.10
2019-03-11T01:05:37.329Z,71.76
2019-03-11T01:10:39.367Z,70.90
2019-03-11T01:15:41.431Z,70.47
2019-03-11T01:20:43.517Z,69.50
2019-03-11T01:25:45.666Z,68.27
2019-03-11T01:30:47.844Z,68.33
2019-03-11T01:35:49.967Z,67.89
2019-03-11T01:40:52.297Z,67.62
2019-03-11T01:45:54.445Z,67.38
2019-03-11T01:50:56.501Z,66.67
2019-03-11T01:55:58.562Z,67.40
2019-03-11T02:01:00.668Z,67.04
2019-03-11T02:06:02.879Z,66.76
2019-03-11T02:11:04.940Z,67.80
2019-03-11T02:16:06.956Z,67.49
2019-03-11T02:21:09.013Z,67.26
2019-03-11T02:26:11.150Z,68.34
2019-03-11T02:31:13.846Z,67.53
2019-03-11T02:36:15.953Z,68.75
2019-03-11T02:41:17.985Z,68.56
2019-03-11T02:46:20.147Z,68.71
2019-03-11T02:51:22.330Z,69.03
2019-03-11T02:56:24.435Z,69.04
2019-03-11T03:01:44.395Z,68.53
2019-03-11T03:06:46.496Z,67.49
2019-03-11T03:11:48.609Z,66.42
2019-03-11T03:16:50.658Z,65.55
2019-03-11T03:21:52.813Z,64.98
2019-03-11T03:26:54.866Z,64.58
2019-03-11T03:31:57.029Z,64.99
2019-03-11T03:36:59.092Z,64.14
2019-03-11T03:42:01.355Z,64.31
2019-03-11T03:47:03.458Z,71.39
2019-03-11T03:52:06.440Z,74.88
2019-03-11T03:57:09.333Z,75.57
2019-03-11T04:02:11.764Z,75.94
2019-03-11T04:07:13.870Z,76.29
2019-03-11T04:12:16.286Z,76.50
2019-03-11T04:17:18.480Z,75.59
2019-03-11T04:22:20.574Z,75.38
2019-03-11T04:27:22.892Z,75.57
2019-03-11T04:32:25.016Z,75.56
2019-03-11T04:37:27.155Z,76.04
2019-03-11T04:42:29.285Z,76.24
2019-03-11T04:47:31.429Z,76.36
2019-03-11T04:52:33.538Z,76.17
2019-03-11T04:57:41.111Z,76.04
2019-03-11T05:02:43.164Z,76.56
2019-03-11T05:07:45.277Z,75.36
2019-03-11T05:12:47.367Z,74.56
2019-03-11T05:17:50.211Z,74.77
2019-03-11T05:22:54.716Z,79.67
2019-03-11T05:27:56.657Z,80.35
2019-03-11T05:32:58.695Z,80.94
2019-03-11T05:38:00.801Z,80.36
2019-03-11T05:43:03.339Z,78.95
2019-03-11T05:48:05.429Z,76.41
2019-03-11T05:53:07.913Z,75.59
2019-03-11T05:58:10.481Z,73.84
2019-03-11T06:03:12.559Z,72.36
2019-03-11T06:08:22.010Z,73.21
2019-03-11T06:13:35.263Z,75.35
2019-03-11T06:18:44.558Z,76.40
2019-03-11T06:23:47.148Z,78.29
2019-03-11T06:28:49.255Z,79.90
2019-03-11T06:33:51.489Z,80.95
2019-03-11T06:38:53.638Z,80.15
2019-03-11T06:43:55.995Z,79.31
2019-03-11T06:48:58.506Z,78.12
2019-03-11T06:54:00.602Z,76.86
2019-03-11T06:59:02.722Z,77.00
2019-03-11T07:04:04.762Z,77.27
2019-03-11T07:09:07.815Z,76.01
2019-03-11T07:14:10.120Z,75.10
2019-03-11T07:19:12.183Z,76.38
2019-03-11T07:24:14.692Z,75.60
2019-03-11T07:29:16.826Z,74.45
2019-03-11T07:34:18.923Z,74.67
2019-03-11T07:39:21.384Z,74.02
2019-03-11T07:44:23.498Z,72.83
2019-03-11T07:49:25.617Z,71.58
2019-03-11T07:54:35.490Z,70.00
2019-03-11T07:59:32.046Z,69.14
2019-03-11T08:04:34.177Z,68.31
2019-03-11T08:09:38.274Z,67.78
2019-03-11T08:14:40.536Z,67.53
2019-03-11T08:19:42.680Z,67.12
2019-03-11T08:24:44.763Z,66.45
2019-03-11T08:29:46.831Z,63.97
2019-03-11T08:34:49.339Z,60.52
2019-03-11T08:39:51.518Z,60.26
2019-03-11T08:44:53.594Z,58.73
2019-03-11T08:49:55.730Z,57.80
2019-03-11T08:54:58.150Z,57.37
2019-03-11T09:00:00.374Z,57.04
2019-03-11T09:05:03.022Z,56.83
2019-03-11T09:10:07.230Z,56.53
2019-03-11T09:15:10.884Z,56.24
2019-03-11T09:20:13.012Z,57.36
2019-03-11T09:25:15.126Z,58.92
2019-03-11T09:30:18.297Z,59.99
2019-03-11T09:35:20.455Z,61.11
2019-03-11T09:40:22.585Z,62.56
2019-03-11T09:45:24.745Z,64.77
2019-03-11T09:50:26.828Z,70.65
2019-03-11T09:55:29.012Z,71.75
2019-03-11T10:00:31.092Z,72.20
2019-03-11T10:05:33.460Z,71.57
2019-03-11T10:10:35.585Z,68.75
2019-03-11T10:15:38.096Z,68.87
2019-03-11T10:20:40.238Z,68.83
2019-03-11T10:25:42.399Z,67.21
2019-03-11T10:30:44.627Z,64.77
2019-03-11T10:35:46.711Z,63.58
2019-03-11T10:40:48.788Z,64.16
2019-03-11T10:45:50.966Z,65.21
2019-03-11T10:50:53.542Z,63.87
2019-03-11T10:55:55.784Z,61.33
2019-03-11T11:00:57.869Z,62.27
2019-03-11T11:06:00.018Z,62.52
2019-03-11T11:11:02.208Z,62.82
2019-03-11T11:16:04.708Z,62.29
2019-03-11T11:21:06.885Z,61.72
2019-03-11T11:26:09.201Z,61.76
2019-03-11T11:31:11.245Z,60.30
2019-03-11T11:36:13.327Z,60.21
2019-03-11T11:41:16.610Z,59.86
2019-03-11T11:46:18.876Z,59.64
2019-03-11T11:51:21.089Z,59.26
2019-03-11T11:56:23.205Z,58.96
2019-03-11T12:01:25.284Z,57.65
2019-03-11T12:06:27.470Z,57.12
2019-03-11T12:11:29.548Z,56.46
2019-03-11T12:16:31.697Z,55.22
2019-03-11T12:21:33.812Z,54.69
2019-03-11T12:26:35.930Z,54.93
2019-03-11T12:31:38.081Z,54.30
2019-03-11T12:36:40.660Z,54.81
2019-03-11T12:41:43.075Z,54.75
2019-03-11T12:46:45.742Z,54.43
2019-03-11T12:51:50.135Z,53.57
2019-03-11T12:56:51.986Z,53.16
2019-03-11T13:01:54.153Z,53.08
2019-03-11T13:06:56.194Z,52.47
2019-03-11T13:11:58.264Z,53.05
2019-03-11T13:17:00.727Z,52.78
2019-03-11T13:22:02.945Z,53.17
2019-03-11T13:27:05.370Z,52.92
2019-03-11T13:32:07.480Z,52.58
2019-03-11T13:37:09.616Z,51.91
2019-03-11T13:42:12.129Z,51.21
2019-03-11T13:47:14.636Z,50.61
2019-03-11T13:52:16.855Z,50.87
2019-03-11T13:57:19.231Z,52.11
2019-03-11T14:02:21.401Z,50.71
2019-03-11T14:07:23.431Z,50.45
2019-03-11T14:12:25.509Z,52.16
2019-03-11T14:17:27.605Z,52.41
2019-03-11T14:22:29.734Z,53.74
2019-03-11T14:27:31.872Z,53.28
2019-03-11T14:32:35.048Z,51.53
2019-03-11T14:37:37.151Z,51.73
2019-03-11T14:42:39.316Z,52.88
2019-03-11T14:47:41.447Z,54.20
2019-03-11T14:52:43.558Z,54.68
2019-03-11T14:57:45.692Z,55.13
2019-03-11T15:02:48.544Z,55.37
2019-03-11T15:07:51.187Z,55.54
2019-03-11T15:12:53.628Z,55.80
2019-03-11T15:17:55.664Z,54.45
2019-03-11T15:23:05.936Z,64.74
2019-03-11T15:28:02.203Z,74.79
2019-03-11T15:33:04.331Z,73.43
2019-03-11T15:38:06.431Z,71.70
2019-03-11T15:43:09.350Z,71.16
2019-03-11T15:48:11.504Z,69.93
2019-03-11T15:53:13.733Z,65.23
2019-03-11T15:58:15.947Z,61.18
2019-03-11T16:03:18.505Z,60.19
2019-03-11T16:08:20.605Z,61.10
2019-03-11T16:13:22.730Z,63.07
2019-03-11T16:18:24.874Z,66.94
2019-03-11T16:23:26.992Z,68.47
2019-03-11T16:28:29.141Z,61.88
2019-03-11T16:33:33.931Z,61.69
2019-03-11T16:38:35.202Z,60.42
2019-03-11T16:43:37.319Z,60.52
2019-03-11T16:48:39.416Z,61.83
2019-03-11T16:53:41.518Z,59.58
2019-03-11T16:58:43.602Z,57.71
2019-03-11T17:03:45.764Z,56.37
2019-03-11T17:08:47.858Z,57.24
2019-03-11T17:13:49.967Z,56.81
2019-03-11T17:18:52.115Z,57.05
2019-03-11T17:23:54.208Z,57.84
2019-03-11T17:28:56.296Z,57.10
2019-03-11T17:33:59.283Z,57.26
2019-03-11T17:39:01.448Z,56.83
2019-03-11T17:44:03.600Z,56.88
2019-03-11T17:49:05.752Z,57.39
2019-03-11T17:54:07.911Z,55.89
2019-03-11T17:59:10.252Z,55.84
2019-03-11T18:04:12.381Z,56.76
2019-03-11T18:09:14.476Z,56.67
2019-03-11T18:14:16.567Z,56.66
2019-03-11T18:19:18.687Z,57.22
2019-03-11T18:24:21.124Z,56.41
2019-03-11T18:29:23.210Z,57.21
2019-03-11T18:34:25.243Z,57.43
2019-03-11T18:39:27.786Z,57.23
2019-03-11T18:44:29.969Z,58.19
2019-03-11T18:49:32.146Z,58.74
2019-03-11T18:54:36.823Z,59.77
2019-03-11T18:59:38.471Z,57.98
2019-03-11T19:04:41.299Z,59.09
2019-03-11T19:09:43.455Z,57.95
2019-03-11T19:14:45.573Z,58.58
2019-03-11T19:19:47.682Z,59.23
2019-03-11T19:24:49.893Z,57.96
2019-03-11T19:29:52.041Z,58.50
2019-03-11T19:34:54.209Z,59.31
2019-03-11T19:39:56.455Z,58.53
2019-03-11T19:44:58.623Z,58.26
2019-03-11T19:50:00.714Z,58.51
2019-03-11T19:55:03.055Z,58.52
2019-03-11T20:00:05.736Z,58.50
2019-03-11T20:05:08.679Z,57.13
2019-03-11T20:10:11.372Z,57.74
2019-03-11T20:15:14.230Z,57.96
2019-03-11T20:20:19.182Z,57.76
2019-03-11T20:25:23.344Z,58.62
2019-03-11T20:30:25.730Z,58.57
2019-03-11T20:35:28.166Z,58.89
2019-03-11T20:40:30.936Z,59.66
2019-03-11T20:45:33.936Z,58.38
2019-03-11T20:50:41.976Z,58.76
2019-03-11T20:55:40.022Z,58.49
2019-03-11T21:00:42.733Z,58.59
2019-03-11T21:05:45.522Z,59.97
2019-03-11T21:10:48.441Z,59.78
2019-03-11T21:15:50.671Z,60.47
2019-03-11T21:21:04.216Z,61.06
2019-03-11T21:25:57.131Z,61.34
2019-03-11T21:31:02.711Z,61.61
2019-03-11T21:36:05.155Z,61.69
2019-03-11T21:41:07.712Z,61.56
2019-03-11T21:46:09.870Z,61.86
2019-03-11T21:51:12.005Z,62.04
2019-03-11T21:56:23.371Z,62.37
2019-03-11T22:01:31.008Z,62.00
2019-03-11T22:06:38.706Z,61.55
2019-03-11T22:11:45.119Z,61.99
2019-03-11T22:16:47.401Z,62.25
2019-03-11T22:21:56.121Z,62.11
2019-03-11T22:26:58.762Z,62.31
2019-03-11T22:32:00.784Z,61.15
2019-03-11T22:37:02.857Z,62.06
2019-03-11T22:42:04.916Z,62.17
2019-03-11T22:47:06.988Z,62.76
2019-03-11T22:52:09.040Z,62.16
2019-03-11T22:57:11.106Z,61.17
2019-03-11T23:02:14.452Z,61.68
2019-03-11T23:07:22.846Z,61.30
2019-03-11T23:12:34.107Z,61.65
2019-03-11T23:17:36.492Z,61.92
2019-03-11T23:22:38.805Z,62.45
2019-03-11T23:27:50.162Z,62.84
2019-03-11T23:32:52.477Z,63.47
2019-03-11T23:37:54.824Z,62.23
2019-03-11T23:42:57.285Z,62.24
2019-03-11T23:47:59.379Z,61.70
2019-03-11T23:53:03.655Z,61.23
2019-03-11T23:58:05.783Z,61.32
